createdAt,value
2018-08-24T00:01:02.906Z,22.37
2018-08-24T00:03:31.500Z,22.18
2018-08-24T00:06:00.094Z,22.16
2018-08-24T00:08:29.211Z,21.98
2018-08-24T00:10:57.805Z,22.00
2018-08-24T00:13:26.379Z,21.93
2018-08-24T00:15:55.149Z,21.77
2018-08-24T00:18:23.689Z,21.79
2018-08-24T00:20:52.217Z,21.73
2018-08-24T00:23:21.380Z,21.74
2018-08-24T00:25:49.912Z,21.63
2018-08-24T00:28:18.474Z,21.75
2018-08-24T00:30:46.973Z,21.77
2018-08-24T00:33:15.523Z,21.79
2018-08-24T00:35:44.047Z,21.77
2018-08-24T00:38:12.604Z,21.76
2018-08-24T00:40:41.128Z,21.80
2018-08-24T00:43:09.909Z,21.74
2018-08-24T00:45:38.411Z,21.74
2018-08-24T00:48:06.981Z,21.80
2018-08-24T00:50:35.499Z,21.76
2018-08-24T00:53:04.289Z,21.84
2018-08-24T00:55:32.813Z,21.87
2018-08-24T00:58:01.367Z,21.91
2018-08-24T01:00:35.139Z,21.80
2018-08-24T01:03:04.066Z,21.92
2018-08-24T01:05:32.607Z,21.84
2018-08-24T01:08:06.410Z,21.78
2018-08-24T01:10:35.346Z,21.71
2018-08-24T01:13:03.982Z,21.68
2018-08-24T01:15:43.682Z,21.60
2018-08-24T01:18:16.712Z,21.46
2018-08-24T01:20:50.373Z,21.57
2018-08-24T01:23:22.122Z,21.67
2018-08-24T01:25:50.637Z,21.79
2018-08-24T01:28:20.158Z,21.90
2018-08-24T01:30:48.743Z,21.92
2018-08-24T01:33:17.887Z,21.86
2018-08-24T01:35:47.152Z,21.87
2018-08-24T01:38:16.034Z,21.34
2018-08-24T01:40:44.585Z,21.18
2018-08-24T01:43:13.126Z,20.88
2018-08-24T01:45:41.658Z,20.83
2018-08-24T01:48:10.522Z,20.90
2018-08-24T01:50:39.088Z,21.09
2018-08-24T01:53:07.892Z,21.30
2018-08-24T01:55:36.918Z,21.12
2018-08-24T01:58:05.835Z,20.67
2018-08-24T02:00:34.784Z,20.84
2018-08-24T02:03:03.345Z,20.59
2018-08-24T02:05:32.365Z,20.48
2018-08-24T02:08:00.929Z,20.68
2018-08-24T02:10:29.882Z,20.29
2018-08-24T02:13:03.591Z,19.84
2018-08-24T02:15:32.132Z,20.02
2018-08-24T02:18:05.833Z,20.12
2018-08-24T02:20:39.886Z,20.25
2018-08-24T02:23:13.847Z,20.24
2018-08-24T02:25:43.646Z,19.94
2018-08-24T02:28:12.910Z,19.87
2018-08-24T02:30:41.862Z,19.56
2018-08-24T02:33:10.378Z,19.62
2018-08-24T02:35:38.907Z,19.91
2018-08-24T02:38:07.440Z,20.12
2018-08-24T02:40:36.030Z,19.98
2018-08-24T02:43:04.875Z,20.23
2018-08-24T02:45:33.452Z,20.30
2018-08-24T02:48:01.985Z,20.12
2018-08-24T02:50:30.541Z,19.82
2018-08-24T02:52:59.090Z,19.73
2018-08-24T02:55:27.633Z,19.50
2018-08-24T02:57:56.157Z,19.71
2018-08-24T03:00:24.950Z,19.71
2018-08-24T03:02:53.483Z,19.72
2018-08-24T03:05:22.212Z,19.53
2018-08-24T03:07:50.668Z,19.27
2018-08-24T03:10:19.232Z,19.37
2018-08-24T03:12:47.768Z,19.53
2018-08-24T03:15:17.267Z,19.72
2018-08-24T03:17:50.863Z,19.89
2018-08-24T03:20:19.464Z,20.15
2018-08-24T03:22:48.014Z,20.24
2018-08-24T03:25:16.914Z,20.07
2018-08-24T03:27:45.434Z,20.23
2018-08-24T03:30:13.966Z,20.16
2018-08-24T03:32:43.137Z,20.09
2018-08-24T03:35:11.692Z,20.01
2018-08-24T03:37:40.273Z,19.97
2018-08-24T03:40:08.850Z,19.84
2018-08-24T03:42:37.480Z,19.82
2018-08-24T03:45:06.081Z,19.95
2018-08-24T03:47:34.962Z,19.59
2018-08-24T03:50:03.564Z,19.86
2018-08-24T03:52:32.356Z,19.82
2018-08-24T03:55:00.887Z,19.38
2018-08-24T03:57:29.425Z,19.61
2018-08-24T03:59:57.988Z,19.14
2018-08-24T04:02:26.496Z,19.00
2018-08-24T04:04:55.031Z,19.02
2018-08-24T04:07:25.287Z,18.99
2018-08-24T04:09:54.140Z,19.40
2018-08-24T04:12:22.661Z,19.27
2018-08-24T04:14:51.208Z,19.23
2018-08-24T04:17:25.786Z,19.29
2018-08-24T04:19:54.753Z,19.52
2018-08-24T04:22:23.279Z,19.16
2018-08-24T04:24:52.093Z,18.80
2018-08-24T04:27:20.617Z,18.51
2018-08-24T04:29:49.690Z,18.49
2018-08-24T04:32:18.194Z,18.51
2018-08-24T04:34:46.805Z,18.48
2018-08-24T04:37:15.667Z,18.52
2018-08-24T04:39:44.213Z,18.53
2018-08-24T04:42:12.768Z,18.51
2018-08-24T04:44:41.318Z,18.53
2018-08-24T04:47:09.835Z,18.65
2018-08-24T04:49:38.335Z,18.37
2018-08-24T04:52:08.360Z,18.29
2018-08-24T04:54:36.902Z,18.54
2018-08-24T04:57:06.098Z,18.53
2018-08-24T04:59:34.672Z,18.72
2018-08-24T05:02:03.521Z,18.84
2018-08-24T05:04:32.060Z,18.73
2018-08-24T05:07:00.605Z,18.61
2018-08-24T05:09:29.124Z,18.55
2018-08-24T05:11:57.663Z,18.69
2018-08-24T05:14:26.625Z,18.51
2018-08-24T05:16:55.186Z,18.56
2018-08-24T05:19:23.709Z,18.38
2018-08-24T05:21:52.250Z,18.61
2018-08-24T05:24:20.783Z,18.37
2018-08-24T05:26:49.778Z,18.28
2018-08-24T05:29:18.306Z,18.27
2018-08-24T05:31:47.073Z,18.26
2018-08-24T05:34:15.601Z,18.47
2018-08-24T05:36:44.153Z,18.38
2018-08-24T05:39:12.678Z,18.50
2018-08-24T05:41:41.566Z,18.37
2018-08-24T05:44:10.498Z,18.42
2018-08-24T05:46:39.070Z,18.61
2018-08-24T05:49:07.910Z,18.75
2018-08-24T05:51:36.498Z,18.66
2018-08-24T05:54:05.049Z,18.92
2018-08-24T05:56:33.623Z,19.19
2018-08-24T05:59:03.062Z,18.98
2018-08-24T06:01:31.624Z,18.93
2018-08-24T06:04:00.160Z,19.19
2018-08-24T06:06:28.675Z,19.22
2018-08-24T06:09:03.761Z,19.17
2018-08-24T06:11:32.315Z,19.09
2018-08-24T06:14:00.826Z,19.08
2018-08-24T06:16:29.692Z,19.03
2018-08-24T06:18:58.209Z,19.01
2018-08-24T06:21:26.769Z,18.91
2018-08-24T06:23:55.382Z,19.03
2018-08-24T06:26:24.365Z,19.05
2018-08-24T06:28:52.900Z,19.33
2018-08-24T06:31:21.911Z,19.38
2018-08-24T06:33:50.427Z,19.45
2018-08-24T06:36:18.972Z,19.53
2018-08-24T06:38:47.491Z,19.59
2018-08-24T06:41:16.053Z,19.71
2018-08-24T06:43:45.374Z,19.66
2018-08-24T06:46:13.945Z,19.66
2018-08-24T06:48:42.457Z,19.77
2018-08-24T06:51:11.037Z,19.41
2018-08-24T06:53:39.612Z,19.34
2018-08-24T06:56:08.962Z,19.61
2018-08-24T06:58:37.489Z,19.71
2018-08-24T07:01:06.172Z,19.73
2018-08-24T07:03:34.709Z,19.63
2018-08-24T07:06:03.288Z,19.59
2018-08-24T07:08:32.035Z,19.56
2018-08-24T07:11:00.544Z,19.43
2018-08-24T07:13:29.124Z,19.39
2018-08-24T07:15:57.712Z,19.44
2018-08-24T07:18:26.242Z,19.63
2018-08-24T07:20:55.255Z,19.48
2018-08-24T07:23:23.832Z,19.55
2018-08-24T07:25:52.564Z,19.31
2018-08-24T07:28:21.357Z,19.61
2018-08-24T07:30:49.839Z,19.58
2018-08-24T07:33:18.786Z,19.60
2018-08-24T07:35:47.524Z,19.68
2018-08-24T07:38:16.082Z,19.60
2018-08-24T07:40:44.619Z,19.35
2018-08-24T07:43:13.197Z,19.31
2018-08-24T07:45:41.738Z,19.54
2018-08-24T07:48:10.285Z,19.52
2018-08-24T07:50:38.813Z,19.36
2018-08-24T07:53:07.811Z,19.28
2018-08-24T07:55:36.602Z,19.06
2018-08-24T07:58:05.473Z,18.99
2018-08-24T08:00:34.051Z,19.08
2018-08-24T08:03:02.599Z,18.97
2018-08-24T08:05:31.233Z,18.89
2018-08-24T08:08:00.686Z,18.73
2018-08-24T08:10:33.666Z,18.62
2018-08-24T08:13:02.961Z,18.52
2018-08-24T08:15:33.022Z,18.35
2018-08-24T08:18:01.593Z,18.04
2018-08-24T08:20:30.116Z,17.90
2018-08-24T08:22:58.952Z,17.83
2018-08-24T08:25:27.489Z,17.84
2018-08-24T08:27:56.058Z,17.83
2018-08-24T08:30:24.559Z,17.92
2018-08-24T08:32:53.249Z,18.02
2018-08-24T08:35:22.794Z,18.10
2018-08-24T08:37:52.152Z,18.11
2018-08-24T08:40:22.177Z,17.99
2018-08-24T08:42:51.435Z,18.15
2018-08-24T08:45:20.986Z,17.67
2018-08-24T08:47:49.507Z,17.66
2018-08-24T08:50:18.546Z,17.93
2018-08-24T08:52:48.663Z,18.16
2018-08-24T08:55:17.184Z,17.39
2018-08-24T08:57:46.617Z,17.28
2018-08-24T09:00:15.129Z,17.21
2018-08-24T09:02:47.516Z,17.07
2018-08-24T09:05:16.040Z,17.27
2018-08-24T09:07:46.780Z,17.40
2018-08-24T09:10:15.752Z,17.40
2018-08-24T09:12:44.624Z,17.59
2018-08-24T09:15:13.157Z,17.85
2018-08-24T09:17:47.628Z,17.97
2018-08-24T09:20:21.323Z,17.73
2018-08-24T09:22:55.285Z,17.28
2018-08-24T09:25:29.257Z,17.56
2018-08-24T09:28:03.273Z,17.93
2018-08-24T09:30:37.740Z,17.60
2018-08-24T09:33:06.312Z,17.86
2018-08-24T09:35:35.652Z,17.59
2018-08-24T09:38:05.611Z,17.75
2018-08-24T09:40:39.496Z,18.23
2018-08-24T09:43:13.154Z,18.46
2018-08-24T09:45:41.693Z,18.19
2018-08-24T09:48:16.603Z,18.12
2018-08-24T09:50:50.253Z,17.67
2018-08-24T09:53:24.297Z,17.34
2018-08-24T09:55:53.506Z,17.70
2018-08-24T09:58:23.150Z,17.80
2018-08-24T10:01:01.074Z,18.12
2018-08-24T10:03:34.945Z,18.42
2018-08-24T10:06:08.590Z,17.59
2018-08-24T10:08:42.660Z,17.55
2018-08-24T10:11:11.191Z,17.71
2018-08-24T10:13:39.765Z,17.80
2018-08-24T10:16:08.398Z,18.14
2018-08-24T10:18:37.213Z,17.85
2018-08-24T10:21:05.750Z,18.03
2018-08-24T10:23:34.838Z,18.12
2018-08-24T10:26:03.391Z,18.16
2018-08-24T10:28:32.136Z,17.86
2018-08-24T10:31:00.726Z,18.20
2018-08-24T10:33:29.259Z,18.80
2018-08-24T10:35:57.801Z,18.32
2018-08-24T10:38:26.452Z,18.22
2018-08-24T10:40:55.103Z,18.74
2018-08-24T10:43:23.552Z,18.63
2018-08-24T10:45:52.111Z,19.22
2018-08-24T10:48:20.646Z,18.56
2018-08-24T10:50:50.216Z,18.91
2018-08-24T10:53:18.731Z,19.09
2018-08-24T10:55:47.365Z,19.62
2018-08-24T10:58:15.828Z,19.76
2018-08-24T11:00:44.385Z,20.78
2018-08-24T11:03:13.329Z,20.24
2018-08-24T11:05:41.889Z,20.50
2018-08-24T11:08:10.401Z,20.40
2018-08-24T11:10:39.697Z,20.72
2018-08-24T11:13:08.516Z,21.73
2018-08-24T11:15:37.948Z,21.04
2018-08-24T11:18:08.753Z,20.46
2018-08-24T11:20:39.029Z,19.69
2018-08-24T11:23:08.099Z,20.45
2018-08-24T11:25:37.045Z,21.36
2018-08-24T11:28:06.490Z,22.16
2018-08-24T11:30:35.025Z,20.50
2018-08-24T11:33:03.572Z,21.59
2018-08-24T11:35:32.218Z,21.73
2018-08-24T11:38:01.934Z,21.56
2018-08-24T11:40:30.470Z,21.77
2018-08-24T11:43:00.782Z,22.15
2018-08-24T11:45:30.159Z,21.50
2018-08-24T11:47:58.939Z,21.72
2018-08-24T11:50:27.477Z,20.47
2018-08-24T11:52:56.059Z,20.79
2018-08-24T11:55:24.592Z,21.34
2018-08-24T11:57:53.149Z,21.56
2018-08-24T12:00:26.037Z,21.47
2018-08-24T12:02:56.139Z,21.27
2018-08-24T12:05:24.673Z,21.18
2018-08-24T12:07:53.265Z,21.12
2018-08-24T12:10:22.212Z,21.48
2018-08-24T12:12:50.783Z,21.73
2018-08-24T12:15:19.697Z,21.59
2018-08-24T12:17:48.285Z,21.93
2018-08-24T12:20:17.017Z,21.80
2018-08-24T12:22:45.888Z,21.52
2018-08-24T12:25:14.661Z,21.23
2018-08-24T12:27:43.239Z,21.86
2018-08-24T12:30:11.775Z,21.89
2018-08-24T12:32:41.110Z,22.37
2018-08-24T12:35:09.606Z,22.08
2018-08-24T12:37:43.406Z,22.59
2018-08-24T12:40:12.004Z,23.05
2018-08-24T12:42:41.300Z,22.41
2018-08-24T12:45:09.886Z,21.99
2018-08-24T12:47:38.672Z,21.86
2018-08-24T12:50:07.888Z,21.75
2018-08-24T12:52:37.254Z,21.71
2018-08-24T12:55:06.858Z,22.59
2018-08-24T12:57:36.059Z,22.56
2018-08-24T13:00:04.796Z,21.75
2018-08-24T13:02:33.312Z,22.19
2018-08-24T13:05:02.565Z,21.80
2018-08-24T13:07:31.936Z,22.54
2018-08-24T13:10:00.696Z,22.17
2018-08-24T13:12:29.223Z,22.05
2018-08-24T13:14:58.331Z,22.54
2018-08-24T13:17:26.969Z,22.80
2018-08-24T13:19:56.200Z,22.35
2018-08-24T13:22:24.758Z,23.18
2018-08-24T13:24:54.251Z,23.31
2018-08-24T13:27:23.685Z,24.02
2018-08-24T13:29:52.216Z,23.25
2018-08-24T13:32:20.841Z,22.97
2018-08-24T13:34:49.373Z,23.32
2018-08-24T13:37:18.549Z,23.14
2018-08-24T13:39:47.508Z,23.10
2018-08-24T13:42:16.913Z,23.21
2018-08-24T13:44:45.654Z,23.04
2018-08-24T13:47:14.223Z,23.32
2018-08-24T13:49:42.744Z,23.56
2018-08-24T13:52:11.557Z,23.41
2018-08-24T13:54:40.667Z,23.33
2018-08-24T13:57:09.815Z,23.57
2018-08-24T13:59:38.715Z,23.75
2018-08-24T14:02:07.273Z,23.43
2018-08-24T14:04:35.827Z,23.71
2018-08-24T14:07:04.605Z,23.60
2018-08-24T14:09:33.992Z,23.06
2018-08-24T14:12:02.886Z,23.19
2018-08-24T14:14:31.415Z,23.72
2018-08-24T14:16:59.962Z,23.83
2018-08-24T14:19:29.049Z,23.83
2018-08-24T14:21:57.599Z,23.82
2018-08-24T14:24:26.162Z,23.63
2018-08-24T14:26:55.193Z,23.49
2018-08-24T14:29:23.756Z,23.73
2018-08-24T14:31:53.295Z,23.62
2018-08-24T14:34:21.893Z,22.50
2018-08-24T14:36:50.782Z,22.22
2018-08-24T14:39:20.023Z,22.36
2018-08-24T14:41:48.527Z,22.45
2018-08-24T14:44:17.712Z,22.56
2018-08-24T14:46:47.125Z,22.30
2018-08-24T14:49:16.253Z,22.03
2018-08-24T14:51:46.431Z,22.19
2018-08-24T14:54:15.254Z,22.42
2018-08-24T14:56:43.812Z,22.80
2018-08-24T14:59:12.357Z,23.00
2018-08-24T15:01:40.899Z,23.13
2018-08-24T15:04:09.458Z,23.18
2018-08-24T15:06:38.510Z,23.07
2018-08-24T15:09:09.141Z,23.16
2018-08-24T15:11:38.137Z,22.94
2018-08-24T15:14:07.247Z,22.82
2018-08-24T15:16:36.676Z,22.79
2018-08-24T15:19:05.409Z,22.40
2018-08-24T15:21:34.688Z,22.48
2018-08-24T15:24:05.516Z,22.55
2018-08-24T15:26:34.174Z,22.66
2018-08-24T15:29:02.777Z,22.66
2018-08-24T15:31:36.921Z,22.76
2018-08-24T15:34:10.468Z,22.62
2018-08-24T15:36:43.733Z,22.73
2018-08-24T15:39:20.572Z,22.81
2018-08-24T15:41:54.140Z,22.57
2018-08-24T15:44:27.633Z,22.11
2018-08-24T15:46:58.419Z,22.23
2018-08-24T15:49:27.054Z,22.21
2018-08-24T15:51:55.701Z,22.17
2018-08-24T15:54:24.264Z,22.19
2018-08-24T15:56:52.803Z,22.10
2018-08-24T15:59:21.371Z,22.00
2018-08-24T16:01:49.889Z,21.87
2018-08-24T16:04:18.431Z,21.86
2018-08-24T16:06:47.364Z,21.80
2018-08-24T16:09:22.545Z,21.68
2018-08-24T16:11:55.153Z,21.75
2018-08-24T16:14:27.522Z,21.56
2018-08-24T16:16:56.030Z,21.60
2018-08-24T16:19:24.783Z,21.49
2018-08-24T16:21:59.714Z,21.52
2018-08-24T16:24:28.303Z,21.44
2018-08-24T16:26:56.807Z,21.32
2018-08-24T16:29:26.178Z,21.30
2018-08-24T16:31:55.402Z,21.27
2018-08-24T16:34:23.941Z,21.17
2018-08-24T16:36:52.545Z,21.13
2018-08-24T16:39:21.046Z,21.02
2018-08-24T16:41:50.835Z,20.99
2018-08-24T16:44:19.395Z,20.97
2018-08-24T16:46:47.978Z,20.90
2018-08-24T16:49:16.487Z,20.97
2018-08-24T16:51:44.986Z,21.00
2018-08-24T16:54:14.002Z,21.09
2018-08-24T16:56:43.365Z,20.99
2018-08-24T16:59:12.191Z,20.92
2018-08-24T17:01:40.815Z,20.80
2018-08-24T17:04:24.311Z,20.53
2018-08-24T17:06:53.603Z,20.53
2018-08-24T17:09:28.434Z,20.47
2018-08-24T17:11:57.345Z,20.48
2018-08-24T17:14:25.897Z,20.46
2018-08-24T17:16:54.416Z,20.47
2018-08-24T17:19:23.030Z,20.39
2018-08-24T17:21:51.826Z,20.33
2018-08-24T17:24:20.394Z,20.29
2018-08-24T17:26:48.978Z,20.20
2018-08-24T17:29:18.258Z,20.23
2018-08-24T17:31:47.014Z,20.23
2018-08-24T17:34:15.556Z,20.13
2018-08-24T17:36:44.084Z,20.06
2018-08-24T17:39:14.105Z,20.00
2018-08-24T17:41:42.629Z,20.02
2018-08-24T17:44:12.121Z,19.88
2018-08-24T17:46:41.053Z,19.88
2018-08-24T17:49:09.602Z,19.87
2018-08-24T17:51:38.278Z,19.85
2018-08-24T17:54:07.881Z,19.89
2018-08-24T17:56:36.444Z,19.86
2018-08-24T17:59:05.185Z,19.90
2018-08-24T18:01:35.514Z,19.90
2018-08-24T18:04:04.074Z,19.78
2018-08-24T18:06:33.090Z,19.71
2018-08-24T18:09:01.626Z,19.75
2018-08-24T18:11:30.427Z,19.64
2018-08-24T18:13:58.972Z,19.63
2018-08-24T18:16:27.753Z,19.55
2018-08-24T18:18:56.321Z,19.58
2018-08-24T18:21:25.606Z,19.57
2018-08-24T18:23:54.150Z,19.62
2018-08-24T18:26:22.729Z,19.54
2018-08-24T18:28:51.311Z,19.57
2018-08-24T18:31:20.612Z,19.54
2018-08-24T18:33:50.521Z,19.50
2018-08-24T18:36:20.214Z,19.35
2018-08-24T18:38:49.062Z,19.34
2018-08-24T18:41:17.608Z,19.26
2018-08-24T18:43:46.806Z,19.12
2018-08-24T18:46:15.348Z,19.11
2018-08-24T18:48:43.964Z,19.05
2018-08-24T18:51:12.782Z,19.07
2018-08-24T18:53:41.328Z,19.09
2018-08-24T18:56:10.476Z,19.05
2018-08-24T18:58:38.998Z,19.00
2018-08-24T19:01:08.534Z,19.04
2018-08-24T19:03:37.643Z,19.01
2018-08-24T19:06:06.216Z,19.01
2018-08-24T19:08:35.164Z,19.01
2018-08-24T19:11:09.445Z,18.96
2018-08-24T19:13:38.009Z,18.94
2018-08-24T19:16:07.009Z,18.87
2018-08-24T19:18:40.951Z,18.84
2018-08-24T19:21:15.122Z,18.71
2018-08-24T19:23:43.645Z,18.62
2018-08-24T19:26:13.325Z,18.62
2018-08-24T19:28:46.917Z,18.58
2018-08-24T19:31:15.748Z,18.50
2018-08-24T19:33:44.285Z,18.44
2018-08-24T19:36:12.877Z,18.39
2018-08-24T19:38:41.714Z,18.36
2018-08-24T19:41:15.656Z,18.34
2018-08-24T19:43:44.606Z,18.26
2018-08-24T19:46:13.450Z,18.27
2018-08-24T19:48:47.128Z,18.33
2018-08-24T19:51:17.020Z,18.35
2018-08-24T19:53:45.554Z,18.31
2018-08-24T19:56:14.425Z,18.31
2018-08-24T19:58:48.734Z,18.34
2018-08-24T20:01:17.290Z,18.38
2018-08-24T20:03:46.276Z,18.30
2018-08-24T20:06:20.243Z,18.23
2018-08-24T20:08:54.323Z,18.28
2018-08-24T20:11:23.031Z,18.25
2018-08-24T20:13:51.565Z,18.12
2018-08-24T20:16:25.399Z,18.14
2018-08-24T20:18:53.929Z,18.13
2018-08-24T20:21:22.781Z,18.08
2018-08-24T20:23:51.295Z,18.08
2018-08-24T20:26:20.612Z,18.05
2018-08-24T20:28:49.445Z,18.02
2018-08-24T20:31:18.569Z,17.99
2018-08-24T20:33:47.555Z,17.91
2018-08-24T20:36:16.090Z,17.92
2018-08-24T20:38:44.618Z,17.94
2018-08-24T20:41:13.400Z,17.89
2018-08-24T20:43:41.926Z,17.90
2018-08-24T20:46:10.475Z,17.97
2018-08-24T20:48:39.005Z,17.80
2018-08-24T20:51:08.067Z,17.74
2018-08-24T20:53:37.850Z,17.80
2018-08-24T20:56:06.865Z,17.81
2018-08-24T20:58:36.661Z,17.79
2018-08-24T21:01:05.940Z,17.70
2018-08-24T21:03:35.029Z,17.71
2018-08-24T21:06:04.765Z,17.72
2018-08-24T21:08:33.290Z,17.71
2018-08-24T21:11:01.834Z,17.61
2018-08-24T21:13:30.710Z,17.68
2018-08-24T21:16:00.253Z,17.69
2018-08-24T21:18:29.330Z,17.67
2018-08-24T21:20:58.611Z,17.61
2018-08-24T21:23:27.230Z,17.66
2018-08-24T21:25:56.003Z,17.16
2018-08-24T21:28:24.583Z,17.08
2018-08-24T21:30:53.545Z,17.18
2018-08-24T21:33:22.877Z,17.32
2018-08-24T21:35:51.423Z,17.18
2018-08-24T21:38:20.037Z,16.93
2018-08-24T21:40:49.603Z,16.83
2018-08-24T21:43:18.258Z,16.63
2018-08-24T21:45:46.808Z,16.65
2018-08-24T21:48:16.325Z,16.53
2018-08-24T21:50:45.292Z,16.59
2018-08-24T21:53:13.851Z,16.38
2018-08-24T21:55:42.766Z,16.10
2018-08-24T21:58:11.333Z,15.97
2018-08-24T22:00:41.527Z,15.89
2018-08-24T22:03:11.101Z,15.97
2018-08-24T22:05:39.977Z,15.79
2018-08-24T22:08:08.610Z,15.71
2018-08-24T22:10:37.929Z,15.73
2018-08-24T22:13:06.527Z,15.71
2018-08-24T22:15:35.506Z,15.82
2018-08-24T22:18:04.291Z,15.88
2018-08-24T22:20:32.820Z,15.76
2018-08-24T22:23:01.437Z,15.87
2018-08-24T22:25:29.965Z,15.92
2018-08-24T22:27:58.557Z,15.62
2018-08-24T22:30:27.521Z,15.42
2018-08-24T22:32:57.570Z,15.29
2018-08-24T22:35:26.112Z,15.20
2018-08-24T22:37:54.669Z,15.55
2018-08-24T22:40:23.218Z,15.85
2018-08-24T22:42:51.822Z,16.23
2018-08-24T22:45:21.116Z,16.46
2018-08-24T22:47:49.887Z,16.43
2018-08-24T22:50:18.387Z,16.48
2018-08-24T22:52:46.928Z,16.36
2018-08-24T22:55:16.450Z,16.51
2018-08-24T22:57:45.097Z,16.54
2018-08-24T23:00:13.869Z,16.52
2018-08-24T23:02:42.844Z,16.64
2018-08-24T23:05:11.710Z,16.85
2018-08-24T23:07:41.040Z,17.06
2018-08-24T23:10:10.832Z,16.88
2018-08-24T23:12:39.781Z,17.18
2018-08-24T23:15:09.152Z,17.04
2018-08-24T23:17:37.754Z,16.63
2018-08-24T23:20:06.367Z,16.06
2018-08-24T23:22:35.248Z,15.41
2018-08-24T23:25:04.069Z,15.29
2018-08-24T23:27:32.862Z,15.23
2018-08-24T23:30:01.402Z,15.20
2018-08-24T23:32:30.026Z,15.48
2018-08-24T23:34:59.689Z,15.79
2018-08-24T23:37:28.245Z,16.10
2018-08-24T23:39:56.765Z,16.34
2018-08-24T23:42:25.318Z,16.36
2018-08-24T23:44:53.851Z,16.56
2018-08-24T23:47:23.587Z,16.60
2018-08-24T23:49:52.556Z,16.83
2018-08-24T23:52:21.325Z,16.79
2018-08-24T23:54:49.921Z,17.04
2018-08-24T23:57:18.941Z,16.78
2018-08-24T23:59:48.137Z,17.01
